sensor_id;sensor_type;location;lat;lon;timestamp;temperature;humidity
758;DHT22;363;48.764;9.172;2023-05-09T00:02:10;15.40;99.90
758;DHT22;363;48.764;9.172;2023-05-09T00:04:36;15.10;99.90
758;DHT22;363;48.764;9.172;2023-05-09T00:07:02;15.20;99.90
758;DHT22;363;48.764;9.172;2023-05-09T00:09:28;15.10;99.90
758;DHT22;363;48.764;9.172;2023-05-09T00:11:53;15.10;99.90
758;DHT22;363;48.764;9.172;2023-05-09T00:14:19;15.10;99.90
758;DHT22;363;48.764;9.172;2023-05-09T00:16:45;15.20;99.90
758;DHT22;363;48.764;9.172;2023-05-09T00:19:10;15.10;99.90
758;DHT22;363;48.764;9.172;2023-05-09T00:21:37;15.10;99.90
758;DHT22;363;48.764;9.172;2023-05-09T00:24:03;15.40;99.90
758;DHT22;363;48.764;9.172;2023-05-09T00:26:29;15.10;99.90
758;DHT22;363;48.764;9.172;2023-05-09T00:28:54;15.20;99.90
758;DHT22;363;48.764;9.172;2023-05-09T00:31:20;15.10;99.90
758;DHT22;363;48.764;9.172;2023-05-09T00:33:46;15.40;99.90
758;DHT22;363;48.764;9.172;2023-05-09T00:36:11;15.40;99.90
758;DHT22;363;48.764;9.172;2023-05-09T00:38:37;15.30;99.90
758;DHT22;363;48.764;9.172;2023-05-09T00:41:03;15.50;99.90
758;DHT22;363;48.764;9.172;2023-05-09T00:43:29;15.40;99.90
758;DHT22;363;48.764;9.172;2023-05-09T00:45:54;15.10;99.90
758;DHT22;363;48.764;9.172;2023-05-09T00:48:20;15.40;99.90
758;DHT22;363;48.764;9.172;2023-05-09T00:50:46;15.30;99.90
758;DHT22;363;48.764;9.172;2023-05-09T00:53:19;15.40;99.90
758;DHT22;363;48.764;9.172;2023-05-09T00:55:46;15.10;99.90
758;DHT22;363;48.764;9.172;2023-05-09T00:58:11;15.20;99.90
758;DHT22;363;48.764;9.172;2023-05-09T01:00:37;15.30;99.90
758;DHT22;363;48.764;9.172;2023-05-09T01:03:03;15.40;99.90
758;DHT22;363;48.764;9.172;2023-05-09T01:05:37;15.30;99.90
758;DHT22;363;48.764;9.172;2023-05-09T01:08:40;15.40;99.90
758;DHT22;363;48.764;9.172;2023-05-09T01:11:35;15.20;99.90
758;DHT22;363;48.764;9.172;2023-05-09T01:20:02;14.90;99.90
758;DHT22;363;48.764;9.172;2023-05-09T01:22:33;15.00;99.90
758;DHT22;363;48.764;9.172;2023-05-09T01:30:24;15.10;99.90
758;DHT22;363;48.764;9.172;2023-05-09T01:32:53;14.90;99.90
758;DHT22;363;48.764;9.172;2023-05-09T01:35:22;14.60;99.90
758;DHT22;363;48.764;9.172;2023-05-09T01:37:51;14.90;99.90
758;DHT22;363;48.764;9.172;2023-05-09T01:40:19;15.00;99.90
758;DHT22;363;48.764;9.172;2023-05-09T01:42:57;14.90;99.90
758;DHT22;363;48.764;9.172;2023-05-09T01:45:24;15.20;99.90
758;DHT22;363;48.764;9.172;2023-05-09T01:47:52;14.70;99.90
758;DHT22;363;48.764;9.172;2023-05-09T01:50:19;14.80;99.90
758;DHT22;363;48.764;9.172;2023-05-09T01:52:47;15.00;99.90
758;DHT22;363;48.764;9.172;2023-05-09T01:55:14;14.80;99.90
758;DHT22;363;48.764;9.172;2023-05-09T01:57:42;15.00;99.90
758;DHT22;363;48.764;9.172;2023-05-09T02:00:08;15.00;99.90
758;DHT22;363;48.764;9.172;2023-05-09T02:02:35;14.90;99.90
758;DHT22;363;48.764;9.172;2023-05-09T02:05:01;15.20;99.90
758;DHT22;363;48.764;9.172;2023-05-09T02:07:28;14.80;99.90
758;DHT22;363;48.764;9.172;2023-05-09T02:09:55;14.80;99.90
758;DHT22;363;48.764;9.172;2023-05-09T02:12:25;15.00;99.90
758;DHT22;363;48.764;9.172;2023-05-09T02:14:51;15.10;99.90
758;DHT22;363;48.764;9.172;2023-05-09T02:17:16;15.00;99.90
758;DHT22;363;48.764;9.172;2023-05-09T02:19:43;15.00;99.90
758;DHT22;363;48.764;9.172;2023-05-09T02:22:09;14.80;99.90
758;DHT22;363;48.764;9.172;2023-05-09T02:24:36;14.90;99.90
758;DHT22;363;48.764;9.172;2023-05-09T02:27:02;14.70;99.90
758;DHT22;363;48.764;9.172;2023-05-09T02:29:34;14.90;99.90
758;DHT22;363;48.764;9.172;2023-05-09T02:32:16;15.10;99.90
758;DHT22;363;48.764;9.172;2023-05-09T02:34:44;15.00;99.90
758;DHT22;363;48.764;9.172;2023-05-09T02:37:10;15.10;99.90
758;DHT22;363;48.764;9.172;2023-05-09T02:39:37;15.30;99.90
758;DHT22;363;48.764;9.172;2023-05-09T02:42:08;15.40;99.90
758;DHT22;363;48.764;9.172;2023-05-09T02:44:34;15.10;99.90
758;DHT22;363;48.764;9.172;2023-05-09T02:47:01;15.10;99.90
758;DHT22;363;48.764;9.172;2023-05-09T02:49:27;15.40;99.90
758;DHT22;363;48.764;9.172;2023-05-09T02:51:52;15.10;99.90
758;DHT22;363;48.764;9.172;2023-05-09T02:54:18;15.20;99.90
758;DHT22;363;48.764;9.172;2023-05-09T02:56:44;14.90;99.90
758;DHT22;363;48.764;9.172;2023-05-09T02:59:09;15.00;99.90
758;DHT22;363;48.764;9.172;2023-05-09T03:01:35;14.70;99.90
758;DHT22;363;48.764;9.172;2023-05-09T03:04:00;14.70;99.90
758;DHT22;363;48.764;9.172;2023-05-09T03:06:26;15.10;99.90
758;DHT22;363;48.764;9.172;2023-05-09T03:08:52;15.00;99.90
758;DHT22;363;48.764;9.172;2023-05-09T03:11:17;15.20;99.90
758;DHT22;363;48.764;9.172;2023-05-09T03:13:43;15.00;99.90
758;DHT22;363;48.764;9.172;2023-05-09T03:16:12;15.40;99.90
758;DHT22;363;48.764;9.172;2023-05-09T03:18:38;15.30;99.90
758;DHT22;363;48.764;9.172;2023-05-09T03:21:04;15.20;99.90
758;DHT22;363;48.764;9.172;2023-05-09T03:23:30;15.10;99.90
758;DHT22;363;48.764;9.172;2023-05-09T03:25:55;15.10;99.90
758;DHT22;363;48.764;9.172;2023-05-09T03:28:21;15.20;99.90
758;DHT22;363;48.764;9.172;2023-05-09T03:30:47;15.00;99.90
758;DHT22;363;48.764;9.172;2023-05-09T03:33:12;15.20;99.90
758;DHT22;363;48.764;9.172;2023-05-09T03:35:38;15.10;99.90
758;DHT22;363;48.764;9.172;2023-05-09T03:38:03;15.20;99.90
758;DHT22;363;48.764;9.172;2023-05-09T03:40:30;15.00;99.90
758;DHT22;363;48.764;9.172;2023-05-09T03:42:55;14.80;99.90
758;DHT22;363;48.764;9.172;2023-05-09T03:45:21;14.80;99.90
758;DHT22;363;48.764;9.172;2023-05-09T03:47:46;14.70;99.90
758;DHT22;363;48.764;9.172;2023-05-09T03:50:12;15.10;99.90
758;DHT22;363;48.764;9.172;2023-05-09T03:52:37;14.70;99.90
758;DHT22;363;48.764;9.172;2023-05-09T03:55:03;14.70;99.90
758;DHT22;363;48.764;9.172;2023-05-09T03:57:30;14.60;99.90
758;DHT22;363;48.764;9.172;2023-05-09T03:59:56;14.80;99.90
758;DHT22;363;48.764;9.172;2023-05-09T04:02:22;14.80;99.90
758;DHT22;363;48.764;9.172;2023-05-09T04:04:48;14.70;99.90
758;DHT22;363;48.764;9.172;2023-05-09T04:07:14;14.80;99.90
758;DHT22;363;48.764;9.172;2023-05-09T04:09:40;14.80;99.90
758;DHT22;363;48.764;9.172;2023-05-09T04:12:07;15.00;99.90
758;DHT22;363;48.764;9.172;2023-05-09T04:14:33;14.70;99.90
758;DHT22;363;48.764;9.172;2023-05-09T04:16:58;14.60;99.90
758;DHT22;363;48.764;9.172;2023-05-09T04:19:24;14.70;99.90
758;DHT22;363;48.764;9.172;2023-05-09T04:21:49;14.80;99.90
758;DHT22;363;48.764;9.172;2023-05-09T04:24:15;15.00;99.90
758;DHT22;363;48.764;9.172;2023-05-09T04:26:41;14.70;99.90
758;DHT22;363;48.764;9.172;2023-05-09T04:29:06;14.80;99.90
758;DHT22;363;48.764;9.172;2023-05-09T04:31:32;14.30;99.90
758;DHT22;363;48.764;9.172;2023-05-09T04:33:58;14.70;99.90
758;DHT22;363;48.764;9.172;2023-05-09T04:36:23;14.70;99.90
758;DHT22;363;48.764;9.172;2023-05-09T04:38:49;14.60;99.90
758;DHT22;363;48.764;9.172;2023-05-09T04:41:15;14.60;99.90
758;DHT22;363;48.764;9.172;2023-05-09T04:43:41;14.80;99.90
758;DHT22;363;48.764;9.172;2023-05-09T04:46:07;15.00;99.90
758;DHT22;363;48.764;9.172;2023-05-09T04:48:34;14.90;99.90
758;DHT22;363;48.764;9.172;2023-05-09T04:51:00;14.90;99.90
758;DHT22;363;48.764;9.172;2023-05-09T04:53:26;15.10;99.90
758;DHT22;363;48.764;9.172;2023-05-09T04:55:53;15.30;99.90
758;DHT22;363;48.764;9.172;2023-05-09T04:58:19;15.10;99.90
758;DHT22;363;48.764;9.172;2023-05-09T05:00:44;15.50;99.90
758;DHT22;363;48.764;9.172;2023-05-09T05:03:11;15.40;99.90
758;DHT22;363;48.764;9.172;2023-05-09T05:05:36;15.50;99.90
758;DHT22;363;48.764;9.172;2023-05-09T05:08:02;15.60;99.90
758;DHT22;363;48.764;9.172;2023-05-09T05:10:28;15.50;99.90
758;DHT22;363;48.764;9.172;2023-05-09T05:12:54;15.60;99.90
758;DHT22;363;48.764;9.172;2023-05-09T05:15:20;16.00;99.90
758;DHT22;363;48.764;9.172;2023-05-09T05:17:45;16.20;99.90
758;DHT22;363;48.764;9.172;2023-05-09T05:20:11;16.20;99.90
758;DHT22;363;48.764;9.172;2023-05-09T05:22:37;16.50;99.90
758;DHT22;363;48.764;9.172;2023-05-09T05:25:02;16.70;99.90
758;DHT22;363;48.764;9.172;2023-05-09T05:27:29;16.70;99.90
758;DHT22;363;48.764;9.172;2023-05-09T05:29:55;16.70;99.90
758;DHT22;363;48.764;9.172;2023-05-09T05:32:20;16.80;99.90
758;DHT22;363;48.764;9.172;2023-05-09T05:34:46;16.70;99.90
758;DHT22;363;48.764;9.172;2023-05-09T05:37:11;16.60;99.90
758;DHT22;363;48.764;9.172;2023-05-09T05:39:37;16.60;99.90
758;DHT22;363;48.764;9.172;2023-05-09T05:42:02;16.40;99.90
758;DHT22;363;48.764;9.172;2023-05-09T05:44:28;16.50;99.90
758;DHT22;363;48.764;9.172;2023-05-09T05:46:53;16.40;99.90
758;DHT22;363;48.764;9.172;2023-05-09T05:49:19;16.40;99.90
758;DHT22;363;48.764;9.172;2023-05-09T05:51:45;16.50;99.90
758;DHT22;363;48.764;9.172;2023-05-09T05:54:10;16.60;99.90
758;DHT22;363;48.764;9.172;2023-05-09T05:56:36;16.90;99.90
758;DHT22;363;48.764;9.172;2023-05-09T05:59:01;17.10;99.90
758;DHT22;363;48.764;9.172;2023-05-09T06:01:27;17.10;99.90
758;DHT22;363;48.764;9.172;2023-05-09T06:03:52;17.00;99.90
758;DHT22;363;48.764;9.172;2023-05-09T06:06:21;17.00;99.90
758;DHT22;363;48.764;9.172;2023-05-09T06:08:47;17.10;99.90
758;DHT22;363;48.764;9.172;2023-05-09T06:11:16;17.20;99.90
758;DHT22;363;48.764;9.172;2023-05-09T06:13:41;17.40;99.90
758;DHT22;363;48.764;9.172;2023-05-09T06:16:07;17.50;99.90
758;DHT22;363;48.764;9.172;2023-05-09T06:18:34;17.80;99.90
758;DHT22;363;48.764;9.172;2023-05-09T06:21:05;18.10;99.90
758;DHT22;363;48.764;9.172;2023-05-09T06:23:30;18.10;99.90
758;DHT22;363;48.764;9.172;2023-05-09T06:25:56;18.20;99.90
758;DHT22;363;48.764;9.172;2023-05-09T06:28:22;18.80;99.90
758;DHT22;363;48.764;9.172;2023-05-09T06:30:47;18.40;99.90
758;DHT22;363;48.764;9.172;2023-05-09T06:33:13;18.40;99.90
758;DHT22;363;48.764;9.172;2023-05-09T06:35:38;18.50;99.90
758;DHT22;363;48.764;9.172;2023-05-09T06:38:04;18.50;99.90
758;DHT22;363;48.764;9.172;2023-05-09T06:40:29;18.30;99.90
758;DHT22;363;48.764;9.172;2023-05-09T06:42:55;18.30;99.90
758;DHT22;363;48.764;9.172;2023-05-09T06:45:21;18.30;99.90
758;DHT22;363;48.764;9.172;2023-05-09T06:47:47;18.60;99.90
758;DHT22;363;48.764;9.172;2023-05-09T06:50:12;18.40;99.90
758;DHT22;363;48.764;9.172;2023-05-09T06:52:38;18.40;99.90
758;DHT22;363;48.764;9.172;2023-05-09T06:55:04;18.50;99.90
758;DHT22;363;48.764;9.172;2023-05-09T06:57:29;18.50;99.90
758;DHT22;363;48.764;9.172;2023-05-09T06:59:55;18.70;99.90
758;DHT22;363;48.764;9.172;2023-05-09T07:02:21;19.20;99.90
758;DHT22;363;48.764;9.172;2023-05-09T07:04:47;19.30;99.90
758;DHT22;363;48.764;9.172;2023-05-09T07:07:12;19.60;99.90
758;DHT22;363;48.764;9.172;2023-05-09T07:09:38;20.00;99.90
758;DHT22;363;48.764;9.172;2023-05-09T07:12:04;20.50;99.90
758;DHT22;363;48.764;9.172;2023-05-09T07:14:29;21.40;99.90
758;DHT22;363;48.764;9.172;2023-05-09T07:16:55;22.40;98.90
758;DHT22;363;48.764;9.172;2023-05-09T07:19:20;23.60;95.90
758;DHT22;363;48.764;9.172;2023-05-09T07:21:46;24.20;94.00
758;DHT22;363;48.764;9.172;2023-05-09T07:24:12;23.40;93.90
758;DHT22;363;48.764;9.172;2023-05-09T07:26:37;23.00;94.10
758;DHT22;363;48.764;9.172;2023-05-09T07:29:03;22.60;94.10
758;DHT22;363;48.764;9.172;2023-05-09T07:31:29;22.80;94.10
758;DHT22;363;48.764;9.172;2023-05-09T07:33:54;23.20;94.00
758;DHT22;363;48.764;9.172;2023-05-09T07:36:20;24.00;92.50
758;DHT22;363;48.764;9.172;2023-05-09T07:38:45;24.50;91.20
758;DHT22;363;48.764;9.172;2023-05-09T07:41:13;25.00;90.60
758;DHT22;363;48.764;9.172;2023-05-09T07:43:38;26.30;88.40
758;DHT22;363;48.764;9.172;2023-05-09T07:46:04;27.20;82.70
758;DHT22;363;48.764;9.172;2023-05-09T07:48:30;28.10;79.10
758;DHT22;363;48.764;9.172;2023-05-09T07:50:56;28.10;76.90
758;DHT22;363;48.764;9.172;2023-05-09T07:53:22;28.20;75.60
758;DHT22;363;48.764;9.172;2023-05-09T07:55:48;28.30;75.30
758;DHT22;363;48.764;9.172;2023-05-09T07:58:15;28.40;75.30
758;DHT22;363;48.764;9.172;2023-05-09T08:00:41;28.50;74.90
758;DHT22;363;48.764;9.172;2023-05-09T08:03:07;28.20;75.10
758;DHT22;363;48.764;9.172;2023-05-09T08:05:32;28.60;74.50
758;DHT22;363;48.764;9.172;2023-05-09T08:07:58;29.70;71.80
758;DHT22;363;48.764;9.172;2023-05-09T08:10:23;30.30;68.30
758;DHT22;363;48.764;9.172;2023-05-09T08:12:51;30.00;69.70
758;DHT22;363;48.764;9.172;2023-05-09T08:15:16;30.60;66.10
758;DHT22;363;48.764;9.172;2023-05-09T08:17:42;30.30;64.30
758;DHT22;363;48.764;9.172;2023-05-09T08:20:08;29.20;67.20
758;DHT22;363;48.764;9.172;2023-05-09T08:22:37;28.30;70.90
758;DHT22;363;48.764;9.172;2023-05-09T08:25:03;27.50;74.30
758;DHT22;363;48.764;9.172;2023-05-09T08:27:29;27.90;74.10
758;DHT22;363;48.764;9.172;2023-05-09T08:29:55;28.30;73.00
758;DHT22;363;48.764;9.172;2023-05-09T08:32:20;28.80;70.90
758;DHT22;363;48.764;9.172;2023-05-09T08:34:46;29.10;70.90
758;DHT22;363;48.764;9.172;2023-05-09T08:37:11;30.10;66.60
758;DHT22;363;48.764;9.172;2023-05-09T08:39:37;30.60;65.30
758;DHT22;363;48.764;9.172;2023-05-09T08:42:02;30.80;64.20
758;DHT22;363;48.764;9.172;2023-05-09T08:44:29;31.00;61.90
758;DHT22;363;48.764;9.172;2023-05-09T08:46:59;31.40;61.80
758;DHT22;363;48.764;9.172;2023-05-09T08:49:25;30.90;61.10
758;DHT22;363;48.764;9.172;2023-05-09T08:51:51;30.40;62.40
758;DHT22;363;48.764;9.172;2023-05-09T08:54:18;31.10;62.10
758;DHT22;363;48.764;9.172;2023-05-09T08:56:43;30.50;62.70
758;DHT22;363;48.764;9.172;2023-05-09T08:59:09;29.50;65.50
758;DHT22;363;48.764;9.172;2023-05-09T09:01:35;29.10;67.00
758;DHT22;363;48.764;9.172;2023-05-09T09:04:07;28.70;68.60
758;DHT22;363;48.764;9.172;2023-05-09T09:06:34;28.70;67.90
758;DHT22;363;48.764;9.172;2023-05-09T09:09:00;28.60;68.40
758;DHT22;363;48.764;9.172;2023-05-09T09:11:29;27.90;70.40
758;DHT22;363;48.764;9.172;2023-05-09T09:14:01;27.10;73.00
758;DHT22;363;48.764;9.172;2023-05-09T09:16:28;26.00;74.60
758;DHT22;363;48.764;9.172;2023-05-09T09:18:54;25.60;75.70
758;DHT22;363;48.764;9.172;2023-05-09T09:21:21;25.70;76.30
758;DHT22;363;48.764;9.172;2023-05-09T09:23:48;26.30;76.40
758;DHT22;363;48.764;9.172;2023-05-09T09:26:14;27.50;74.00
758;DHT22;363;48.764;9.172;2023-05-09T09:28:41;27.70;71.90
758;DHT22;363;48.764;9.172;2023-05-09T09:31:24;27.50;73.00
758;DHT22;363;48.764;9.172;2023-05-09T09:33:50;27.40;73.90
758;DHT22;363;48.764;9.172;2023-05-09T09:36:25;27.50;72.70
758;DHT22;363;48.764;9.172;2023-05-09T09:38:55;27.30;72.90
758;DHT22;363;48.764;9.172;2023-05-09T09:41:32;27.10;72.40
758;DHT22;363;48.764;9.172;2023-05-09T09:43:58;26.30;72.80
758;DHT22;363;48.764;9.172;2023-05-09T09:46:23;26.40;74.70
758;DHT22;363;48.764;9.172;2023-05-09T09:48:49;26.00;75.70
758;DHT22;363;48.764;9.172;2023-05-09T09:51:20;25.40;75.70
758;DHT22;363;48.764;9.172;2023-05-09T09:53:46;25.40;78.60
758;DHT22;363;48.764;9.172;2023-05-09T09:56:11;25.00;80.10
758;DHT22;363;48.764;9.172;2023-05-09T09:58:37;24.90;81.40
758;DHT22;363;48.764;9.172;2023-05-09T10:01:07;24.70;80.10
758;DHT22;363;48.764;9.172;2023-05-09T10:03:41;25.50;80.40
758;DHT22;363;48.764;9.172;2023-05-09T10:06:12;25.60;79.20
758;DHT22;363;48.764;9.172;2023-05-09T10:08:38;25.40;79.70
758;DHT22;363;48.764;9.172;2023-05-09T10:11:04;25.30;80.20
758;DHT22;363;48.764;9.172;2023-05-09T10:13:31;24.50;82.90
758;DHT22;363;48.764;9.172;2023-05-09T10:15:59;24.10;85.70
758;DHT22;363;48.764;9.172;2023-05-09T10:18:29;23.80;86.80
758;DHT22;363;48.764;9.172;2023-05-09T10:20:58;23.70;87.40
758;DHT22;363;48.764;9.172;2023-05-09T10:23:33;23.80;87.80
758;DHT22;363;48.764;9.172;2023-05-09T10:26:22;23.80;90.00
758;DHT22;363;48.764;9.172;2023-05-09T10:28:54;24.10;87.70
758;DHT22;363;48.764;9.172;2023-05-09T10:31:27;24.40;87.00
758;DHT22;363;48.764;9.172;2023-05-09T10:33:53;24.50;85.90
758;DHT22;363;48.764;9.172;2023-05-09T10:36:23;24.10;87.10
758;DHT22;363;48.764;9.172;2023-05-09T10:38:54;24.00;87.70
758;DHT22;363;48.764;9.172;2023-05-09T10:41:20;24.10;88.10
758;DHT22;363;48.764;9.172;2023-05-09T10:43:46;24.60;86.50
758;DHT22;363;48.764;9.172;2023-05-09T10:46:13;24.90;85.00
758;DHT22;363;48.764;9.172;2023-05-09T10:48:40;24.90;83.50
758;DHT22;363;48.764;9.172;2023-05-09T10:51:07;24.80;84.90
758;DHT22;363;48.764;9.172;2023-05-09T10:56:08;24.90;85.30
758;DHT22;363;48.764;9.172;2023-05-09T10:58:46;25.00;84.80
758;DHT22;363;48.764;9.172;2023-05-09T11:01:12;25.10;85.50
758;DHT22;363;48.764;9.172;2023-05-09T11:03:55;25.20;83.00
758;DHT22;363;48.764;9.172;2023-05-09T11:09:34;26.20;80.60
758;DHT22;363;48.764;9.172;2023-05-09T11:12:12;27.20;77.50
758;DHT22;363;48.764;9.172;2023-05-09T11:14:41;27.00;76.50
758;DHT22;363;48.764;9.172;2023-05-09T11:17:12;27.10;75.00
758;DHT22;363;48.764;9.172;2023-05-09T11:24:38;26.70;77.60
758;DHT22;363;48.764;9.172;2023-05-09T11:27:26;26.40;77.50
758;DHT22;363;48.764;9.172;2023-05-09T11:29:57;26.60;77.00
758;DHT22;363;48.764;9.172;2023-05-09T11:32:39;26.80;76.10
758;DHT22;363;48.764;9.172;2023-05-09T11:35:11;27.60;74.00
758;DHT22;363;48.764;9.172;2023-05-09T11:40:18;28.10;71.20
758;DHT22;363;48.764;9.172;2023-05-09T11:42:55;27.70;71.20
758;DHT22;363;48.764;9.172;2023-05-09T11:45:31;27.60;71.30
758;DHT22;363;48.764;9.172;2023-05-09T11:47:57;27.20;72.60
758;DHT22;363;48.764;9.172;2023-05-09T11:50:23;26.70;73.60
758;DHT22;363;48.764;9.172;2023-05-09T11:52:49;26.20;75.20
758;DHT22;363;48.764;9.172;2023-05-09T11:55:16;26.10;75.60
758;DHT22;363;48.764;9.172;2023-05-09T11:57:50;25.80;76.70
758;DHT22;363;48.764;9.172;2023-05-09T12:00:18;25.40;75.60
758;DHT22;363;48.764;9.172;2023-05-09T12:02:46;25.20;76.40
758;DHT22;363;48.764;9.172;2023-05-09T12:05:14;25.20;76.80
758;DHT22;363;48.764;9.172;2023-05-09T12:07:40;25.00;75.30
758;DHT22;363;48.764;9.172;2023-05-09T12:12:34;24.70;77.70
758;DHT22;363;48.764;9.172;2023-05-09T12:15:06;24.20;80.70
758;DHT22;363;48.764;9.172;2023-05-09T12:17:32;24.20;82.00
758;DHT22;363;48.764;9.172;2023-05-09T12:19:59;24.10;80.60
758;DHT22;363;48.764;9.172;2023-05-09T12:22:25;24.40;81.50
758;DHT22;363;48.764;9.172;2023-05-09T12:24:52;24.40;81.10
758;DHT22;363;48.764;9.172;2023-05-09T12:27:18;24.20;81.30
758;DHT22;363;48.764;9.172;2023-05-09T12:29:45;24.50;82.10
758;DHT22;363;48.764;9.172;2023-05-09T12:32:14;24.60;81.10
758;DHT22;363;48.764;9.172;2023-05-09T12:34:41;24.70;76.60
758;DHT22;363;48.764;9.172;2023-05-09T12:37:17;24.70;76.20
758;DHT22;363;48.764;9.172;2023-05-09T12:42:33;24.30;79.00
758;DHT22;363;48.764;9.172;2023-05-09T12:45:03;24.20;79.10
758;DHT22;363;48.764;9.172;2023-05-09T12:47:30;23.80;78.10
758;DHT22;363;48.764;9.172;2023-05-09T12:49:57;24.10;78.40
758;DHT22;363;48.764;9.172;2023-05-09T12:52:23;24.10;79.10
758;DHT22;363;48.764;9.172;2023-05-09T12:54:51;24.10;78.00
758;DHT22;363;48.764;9.172;2023-05-09T12:57:24;24.10;78.70
758;DHT22;363;48.764;9.172;2023-05-09T12:59:57;24.20;79.30
758;DHT22;363;48.764;9.172;2023-05-09T13:02:25;24.20;79.70
758;DHT22;363;48.764;9.172;2023-05-09T13:07:42;24.20;78.60
758;DHT22;363;48.764;9.172;2023-05-09T13:10:15;24.30;78.00
758;DHT22;363;48.764;9.172;2023-05-09T13:12:46;24.30;78.70
758;DHT22;363;48.764;9.172;2023-05-09T13:15:14;24.40;77.00
758;DHT22;363;48.764;9.172;2023-05-09T13:17:41;24.60;76.80
758;DHT22;363;48.764;9.172;2023-05-09T13:20:07;24.10;78.50
758;DHT22;363;48.764;9.172;2023-05-09T13:22:33;24.30;80.20
758;DHT22;363;48.764;9.172;2023-05-09T13:24:59;24.30;80.70
758;DHT22;363;48.764;9.172;2023-05-09T13:27:25;24.10;80.70
758;DHT22;363;48.764;9.172;2023-05-09T13:29:52;23.90;82.20
758;DHT22;363;48.764;9.172;2023-05-09T13:32:18;23.90;82.00
758;DHT22;363;48.764;9.172;2023-05-09T13:34:43;23.80;82.20
758;DHT22;363;48.764;9.172;2023-05-09T13:37:09;23.80;83.40
758;DHT22;363;48.764;9.172;2023-05-09T13:39:35;23.80;83.50
758;DHT22;363;48.764;9.172;2023-05-09T13:42:00;23.60;83.40
758;DHT22;363;48.764;9.172;2023-05-09T13:44:26;23.40;83.40
758;DHT22;363;48.764;9.172;2023-05-09T13:46:53;23.50;84.00
758;DHT22;363;48.764;9.172;2023-05-09T13:49:18;23.70;83.90
758;DHT22;363;48.764;9.172;2023-05-09T13:51:44;23.90;83.70
758;DHT22;363;48.764;9.172;2023-05-09T13:54:10;24.00;83.00
758;DHT22;363;48.764;9.172;2023-05-09T13:56:41;24.20;82.50
758;DHT22;363;48.764;9.172;2023-05-09T13:59:07;24.10;81.90
758;DHT22;363;48.764;9.172;2023-05-09T14:01:33;24.10;82.50
758;DHT22;363;48.764;9.172;2023-05-09T14:03:59;24.20;80.00
758;DHT22;363;48.764;9.172;2023-05-09T14:06:25;24.20;80.40
758;DHT22;363;48.764;9.172;2023-05-09T14:08:51;24.10;80.40
758;DHT22;363;48.764;9.172;2023-05-09T14:11:16;23.90;81.00
758;DHT22;363;48.764;9.172;2023-05-09T14:13:42;23.70;82.50
758;DHT22;363;48.764;9.172;2023-05-09T14:16:08;23.60;83.80
758;DHT22;363;48.764;9.172;2023-05-09T14:18:33;23.50;84.00
758;DHT22;363;48.764;9.172;2023-05-09T14:20:59;23.50;84.30
758;DHT22;363;48.764;9.172;2023-05-09T14:23:25;23.50;83.20
758;DHT22;363;48.764;9.172;2023-05-09T14:25:51;23.40;83.60
758;DHT22;363;48.764;9.172;2023-05-09T14:28:16;23.50;83.90
758;DHT22;363;48.764;9.172;2023-05-09T14:30:42;23.40;84.70
758;DHT22;363;48.764;9.172;2023-05-09T14:33:08;23.30;85.80
758;DHT22;363;48.764;9.172;2023-05-09T14:35:33;23.20;87.00
758;DHT22;363;48.764;9.172;2023-05-09T14:37:59;23.00;89.00
758;DHT22;363;48.764;9.172;2023-05-09T14:40:25;22.80;88.20
758;DHT22;363;48.764;9.172;2023-05-09T14:42:59;22.70;87.80
758;DHT22;363;48.764;9.172;2023-05-09T14:45:27;22.50;89.10
758;DHT22;363;48.764;9.172;2023-05-09T14:47:53;22.30;89.60
758;DHT22;363;48.764;9.172;2023-05-09T14:50:20;22.10;90.10
758;DHT22;363;48.764;9.172;2023-05-09T14:52:46;22.00;90.50
758;DHT22;363;48.764;9.172;2023-05-09T14:55:12;22.00;91.30
758;DHT22;363;48.764;9.172;2023-05-09T14:57:38;22.10;90.60
758;DHT22;363;48.764;9.172;2023-05-09T15:00:04;22.20;90.50
758;DHT22;363;48.764;9.172;2023-05-09T15:02:30;22.30;90.30
758;DHT22;363;48.764;9.172;2023-05-09T15:04:55;22.40;90.10
758;DHT22;363;48.764;9.172;2023-05-09T15:07:21;22.50;89.40
758;DHT22;363;48.764;9.172;2023-05-09T15:09:46;22.70;89.00
758;DHT22;363;48.764;9.172;2023-05-09T15:12:12;22.70;88.70
758;DHT22;363;48.764;9.172;2023-05-09T15:14:37;22.80;87.60
758;DHT22;363;48.764;9.172;2023-05-09T15:17:04;22.90;87.40
758;DHT22;363;48.764;9.172;2023-05-09T15:19:30;22.80;86.50
758;DHT22;363;48.764;9.172;2023-05-09T15:21:58;23.20;82.90
758;DHT22;363;48.764;9.172;2023-05-09T15:24:24;23.30;82.90
758;DHT22;363;48.764;9.172;2023-05-09T15:26:50;23.30;83.30
758;DHT22;363;48.764;9.172;2023-05-09T15:29:15;23.00;84.00
758;DHT22;363;48.764;9.172;2023-05-09T15:31:41;23.00;84.00
758;DHT22;363;48.764;9.172;2023-05-09T15:34:06;23.10;84.00
758;DHT22;363;48.764;9.172;2023-05-09T15:36:32;23.30;84.60
758;DHT22;363;48.764;9.172;2023-05-09T15:39:00;23.40;84.20
758;DHT22;363;48.764;9.172;2023-05-09T15:41:26;23.40;84.20
758;DHT22;363;48.764;9.172;2023-05-09T15:43:53;23.20;83.70
758;DHT22;363;48.764;9.172;2023-05-09T15:46:19;23.20;84.20
758;DHT22;363;48.764;9.172;2023-05-09T15:48:46;23.30;84.80
758;DHT22;363;48.764;9.172;2023-05-09T15:51:11;23.30;85.30
758;DHT22;363;48.764;9.172;2023-05-09T15:53:38;23.10;84.90
758;DHT22;363;48.764;9.172;2023-05-09T15:56:04;23.30;86.10
758;DHT22;363;48.764;9.172;2023-05-09T15:58:29;23.30;86.00
758;DHT22;363;48.764;9.172;2023-05-09T16:00:55;23.40;86.50
758;DHT22;363;48.764;9.172;2023-05-09T16:03:21;23.20;86.20
758;DHT22;363;48.764;9.172;2023-05-09T16:05:47;22.90;86.60
758;DHT22;363;48.764;9.172;2023-05-09T16:08:13;22.90;87.60
758;DHT22;363;48.764;9.172;2023-05-09T16:10:38;23.00;87.70
758;DHT22;363;48.764;9.172;2023-05-09T16:13:06;23.00;88.40
758;DHT22;363;48.764;9.172;2023-05-09T16:15:31;22.80;88.40
758;DHT22;363;48.764;9.172;2023-05-09T16:17:57;22.80;87.50
758;DHT22;363;48.764;9.172;2023-05-09T16:20:23;22.80;87.10
758;DHT22;363;48.764;9.172;2023-05-09T16:22:50;22.80;87.30
758;DHT22;363;48.764;9.172;2023-05-09T16:25:15;22.80;88.00
758;DHT22;363;48.764;9.172;2023-05-09T16:27:41;22.70;88.50
758;DHT22;363;48.764;9.172;2023-05-09T16:30:07;22.70;88.70
758;DHT22;363;48.764;9.172;2023-05-09T16:32:33;22.80;89.10
758;DHT22;363;48.764;9.172;2023-05-09T16:34:58;22.70;88.80
758;DHT22;363;48.764;9.172;2023-05-09T16:37:24;22.70;89.70
758;DHT22;363;48.764;9.172;2023-05-09T16:39:49;22.70;89.80
758;DHT22;363;48.764;9.172;2023-05-09T16:42:15;22.60;89.90
758;DHT22;363;48.764;9.172;2023-05-09T16:44:41;22.60;90.70
758;DHT22;363;48.764;9.172;2023-05-09T16:47:06;22.70;90.60
758;DHT22;363;48.764;9.172;2023-05-09T16:49:32;22.80;90.60
758;DHT22;363;48.764;9.172;2023-05-09T16:51:57;22.80;90.50
758;DHT22;363;48.764;9.172;2023-05-09T16:54:23;22.80;90.50
758;DHT22;363;48.764;9.172;2023-05-09T16:56:49;22.90;90.50
758;DHT22;363;48.764;9.172;2023-05-09T16:59:15;22.80;90.40
758;DHT22;363;48.764;9.172;2023-05-09T17:01:41;22.70;90.70
758;DHT22;363;48.764;9.172;2023-05-09T17:04:07;22.70;90.60
758;DHT22;363;48.764;9.172;2023-05-09T17:06:33;22.70;90.90